Time;durP1;ratioP1;P1;durP2;ratioP2;P2;SDS_P1;SDS_P2;PMS_P1;PMS_P2;Temp;Humidity;BMP_temperature;BMP_pressure;BME280_temperature;BME280_humidity;BME280_pressure;Samples;Min_cycle;Max_cycle;Signal;HPM_P1;HPM_P2
2023/01/21 00:00:00;;;;;;;1.23;1.10;;;;;;;-1.76;31.44;91913.94;4973496;28;20046;-76
2023/01/21 00:02:25;;;;;;;5.63;1.52;;;;;;;-1.84;31.40;91912.53;4991701;28;20466;-76
2023/01/21 00:04:51;;;;;;;2.95;1.50;;;;;;;-1.92;31.82;91925.69;4989296;28;20046;-77
2023/01/21 00:07:16;;;;;;;2.70;1.48;;;;;;;-1.94;31.45;91907.94;4990606;28;20046;-76
2023/01/21 00:09:42;;;;;;;4.75;1.33;;;;;;;-2.00;31.73;91918.34;4991004;28;20081;-76
2023/01/21 00:12:08;;;;;;;2.33;1.42;;;;;;;-2.00;31.51;91901.16;4992317;28;20038;-76
2023/01/21 00:14:33;;;;;;;2.33;1.40;;;;;;;-1.82;31.29;91912.28;4992113;28;20397;-77
2023/01/21 00:16:59;;;;;;;2.47;1.40;;;;;;;-1.81;31.17;91906.16;4990712;28;20412;-76
2023/01/21 00:19:25;;;;;;;2.08;1.33;;;;;;;-1.87;31.43;91897.56;4992351;28;20034;-76
2023/01/21 00:21:51;;;;;;;4.15;1.48;;;;;;;-1.84;31.16;91904.06;4975999;28;20033;-76
2023/01/21 00:24:17;;;;;;;1.80;1.25;;;;;;;-1.77;31.27;91889.31;4984839;28;20038;-77
2023/01/21 00:26:42;;;;;;;2.70;1.45;;;;;;;-1.79;30.70;91901.59;4989675;28;20408;-78
2023/01/21 00:29:09;;;;;;;2.47;1.50;;;;;;;-1.77;31.16;91897.00;4991239;28;20039;-77
2023/01/21 00:31:35;;;;;;;3.13;1.48;;;;;;;-1.84;31.86;91886.09;4991764;28;20453;-77
2023/01/21 00:34:01;;;;;;;2.20;1.45;;;;;;;-1.92;31.93;91895.66;4991640;28;20111;-77
2023/01/21 00:36:28;;;;;;;3.17;1.40;;;;;;;-1.97;31.57;91885.31;4990324;28;20125;-77
2023/01/21 00:38:57;;;;;;;2.35;1.50;;;;;;;-2.03;32.03;91888.75;4988654;28;20038;-77
2023/01/21 00:41:23;;;;;;;1.20;1.10;;;;;;;-1.89;31.07;91895.25;4990400;28;20042;-76
2023/01/21 00:43:49;;;;;;;3.28;1.67;;;;;;;-1.83;31.06;91893.53;4991099;28;20037;-76
2023/01/21 00:46:14;;;;;;;1.35;1.17;;;;;;;-1.85;30.96;91884.50;4991577;28;20380;-77
2023/01/21 00:48:40;;;;;;;2.08;1.40;;;;;;;-1.89;31.06;91884.97;4989842;28;20046;-77
2023/01/21 00:51:06;;;;;;;1.65;1.35;;;;;;;-1.92;31.72;91864.88;4984750;28;20066;-76
2023/01/21 00:53:34;;;;;;;1.75;1.20;;;;;;;-1.75;31.59;91885.50;4970851;28;20134;-77
2023/01/21 00:56:01;;;;;;;2.72;1.48;;;;;;;-1.81;30.96;91878.72;4955141;28;20051;-77
2023/01/21 00:58:28;;;;;;;1.63;1.23;;;;;;;-1.89;31.38;91882.41;4978586;28;20041;-77
2023/01/21 01:01:09;;;;;;;1.60;1.30;;;;;;;-1.98;31.95;91881.19;4991575;28;20070;-77
2023/01/21 01:03:36;;;;;;;2.17;1.40;;;;;;;-1.98;31.50;91881.19;4989517;28;20165;-77
2023/01/21 01:06:04;;;;;;;3.28;1.65;;;;;;;-1.83;31.33;91875.59;4990494;28;20121;-76
2023/01/21 01:08:29;;;;;;;1.90;1.42;;;;;;;-1.91;31.11;91879.28;4990337;28;20054;-76
2023/01/21 01:10:55;;;;;;;2.15;1.40;;;;;;;-1.92;31.71;91870.00;4990001;28;20061;-77
2023/01/21 01:13:21;;;;;;;2.38;1.33;;;;;;;-1.98;31.60;91870.94;4991318;28;20050;-77
2023/01/21 01:15:50;;;;;;;2.03;1.27;;;;;;;-1.98;32.02;91880.38;4991107;28;20027;-77
2023/01/21 01:18:16;;;;;;;2.60;1.50;;;;;;;-1.88;31.95;91866.00;4989555;28;20061;-77
2023/01/21 01:20:42;;;;;;;2.65;1.60;;;;;;;-1.93;31.87;91862.56;4973552;28;20552;-77
2023/01/21 01:23:08;;;;;;;2.22;1.50;;;;;;;-1.87;32.05;91871.91;4986098;28;20117;-77
2023/01/21 01:25:36;;;;;;;2.08;1.40;;;;;;;-1.87;30.90;91866.78;4971850;28;20174;-76
2023/01/21 01:28:03;;;;;;;2.35;1.45;;;;;;;-1.69;31.02;91864.09;4972157;28;20563;-77
2023/01/21 01:30:29;;;;;;;2.38;1.50;;;;;;;-1.84;31.20;91863.78;4973307;28;20042;-77
2023/01/21 01:32:55;;;;;;;2.55;1.55;;;;;;;-1.86;31.34;91865.78;4973863;28;20037;-77
2023/01/21 01:35:21;;;;;;;2.53;1.50;;;;;;;-1.93;31.21;91868.47;4991073;28;20046;-77
2023/01/21 01:37:46;;;;;;;2.33;1.38;;;;;;;-1.98;31.82;91857.31;4990857;28;20476;-77
2023/01/21 01:40:12;;;;;;;3.08;1.45;;;;;;;-1.90;31.38;91851.84;4989019;28;20038;-76
2023/01/21 01:42:38;;;;;;;2.15;1.40;;;;;;;-1.98;31.24;91855.53;4990826;28;20046;-77
2023/01/21 01:45:06;;;;;;;2.00;1.48;;;;;;;-1.84;31.20;91856.06;4990050;28;20049;-77
2023/01/21 01:47:57;;;;;;;1.45;1.13;;;;;;;-1.91;31.33;91852.84;4990608;28;20049;-77
2023/01/21 01:50:27;;;;;;;4.03;1.50;;;;;;;-1.90;30.93;91851.84;4987976;28;20321;-76
2023/01/21 01:52:54;;;;;;;2.97;1.50;;;;;;;-1.78;29.96;91844.13;4976081;28;20045;-77
2023/01/21 01:55:20;;;;;;;2.13;1.40;;;;;;;-1.84;30.94;91855.31;4970222;28;20131;-77
2023/01/21 01:57:50;;;;;;;2.83;1.60;;;;;;;-1.90;31.62;91850.03;4982582;28;20166;-77
2023/01/21 02:00:17;;;;;;;2.28;1.20;;;;;;;-1.83;31.28;91836.31;4988748;28;20057;-77
2023/01/21 02:03:43;;;;;;;1.67;1.30;;;;;;;-1.86;30.58;91845.25;4989484;28;20042;-77
2023/01/21 02:05:32;;;;;;;3.00;1.80;;;;;;;-1.88;31.41;91835.22;4971034;28;20035;-77
2023/01/21 02:07:59;;;;;;;2.53;1.50;;;;;;;-1.85;31.12;91851.16;4983309;28;20038;-77
2023/01/21 02:10:24;;;;;;;2.10;1.30;;;;;;;-1.81;31.39;91829.19;4990692;28;20197;-77
2023/01/21 02:12:50;;;;;;;3.72;1.50;;;;;;;-1.91;30.96;91840.81;4990367;28;20536;-77
2023/01/21 02:15:16;;;;;;;2.53;1.50;;;;;;;-1.81;31.36;91829.19;4989542;28;20050;-77
2023/01/21 02:17:50;;;;;;;3.47;1.65;;;;;;;-1.86;31.35;91831.66;4991105;28;20038;-77
2023/01/21 02:20:50;;;;;;;3.75;1.55;;;;;;;-1.93;31.96;91827.41;4993827;28;20040;-78
2023/01/21 02:23:36;;;;;;;2.00;1.40;;;;;;;-1.97;31.42;91813.47;4992209;28;20046;-77
2023/01/21 02:26:33;;;;;;;2.15;1.40;;;;;;;-2.03;31.55;91829.00;4993068;28;20117;-77
2023/01/21 02:29:11;;;;;;;2.10;1.35;;;;;;;-1.95;31.11;91821.72;4991220;28;20150;-77
2023/01/21 02:31:53;;;;;;;1.98;1.30;;;;;;;-1.97;31.03;91820.41;4986225;28;20034;-77
2023/01/21 02:34:57;;;;;;;1.30;1.20;;;;;;;-1.80;31.10;91818.69;4993718;28;20058;-77
2023/01/21 02:37:35;;;;;;;1.95;1.40;;;;;;;-1.90;31.75;91814.13;4983548;28;20441;-76
2023/01/21 02:40:14;;;;;;;2.03;1.40;;;;;;;-1.99;31.70;91812.91;4993485;28;20500;-77
2023/01/21 02:43:07;;;;;;;2.15;1.50;;;;;;;-2.12;32.17;91805.47;4991880;28;20035;-78
2023/01/21 02:46:02;;;;;;;2.28;1.40;;;;;;;-2.02;31.78;91815.94;4993531;28;20039;-78
2023/01/21 02:48:34;;;;;;;2.40;1.63;;;;;;;-1.91;31.33;91794.63;4979000;28;20108;-78
2023/01/21 02:51:01;;;;;;;1.50;1.17;;;;;;;-1.77;31.20;91789.25;4980431;28;20042;-78
2023/01/21 02:53:32;;;;;;;2.13;1.30;;;;;;;-1.83;31.62;91801.19;4993706;28;20065;-78
2023/01/21 02:56:03;;;;;;;3.35;1.80;;;;;;;-1.85;31.43;91794.72;4992260;28;20326;-78
2023/01/21 02:58:34;;;;;;;2.47;1.40;;;;;;;-1.96;31.83;91801.44;4984638;28;20046;-78
2023/01/21 03:01:06;;;;;;;2.03;1.40;;;;;;;-2.01;31.52;91789.28;4980986;28;20109;-78
2023/01/21 03:03:37;;;;;;;1.98;1.30;;;;;;;-1.96;31.29;91788.59;4992923;28;20162;-78
2023/01/21 03:06:17;;;;;;;1.80;1.37;;;;;;;-1.92;31.36;91769.19;4993785;28;20038;-78
2023/01/21 03:08:50;;;;;;;1.95;1.30;;;;;;;-1.96;31.76;91776.56;4990388;28;20297;-78
2023/01/21 03:11:18;;;;;;;1.73;1.20;;;;;;;-1.82;31.36;91769.41;4993059;28;20072;-78
2023/01/21 03:16:58;;;;;;;2.10;1.30;;;;;;;-1.85;31.12;91761.38;4973981;28;20552;-78
2023/01/21 03:20:02;;;;;;;3.22;1.73;;;;;;;-2.05;31.92;91766.88;4978838;28;20023;-78
2023/01/21 03:22:32;;;;;;;1.95;1.30;;;;;;;-2.06;32.25;91762.78;4991097;28;20036;-78
2023/01/21 03:24:59;;;;;;;1.38;1.23;;;;;;;-1.93;31.95;91753.03;4991837;28;20034;-78
2023/01/21 03:27:29;;;;;;;2.75;1.70;;;;;;;-1.97;32.06;91754.47;4993024;28;20034;-78
2023/01/21 03:29:59;;;;;;;2.50;1.50;;;;;;;-1.89;31.96;91731.03;4985952;28;20026;-78
2023/01/21 03:32:26;;;;;;;2.15;1.42;;;;;;;-1.95;31.93;91737.06;4979686;28;20029;-78
2023/01/21 03:34:54;;;;;;;2.20;1.30;;;;;;;-1.97;32.03;91739.09;4992699;28;20081;-76
2023/01/21 03:37:31;;;;;;;2.53;1.50;;;;;;;-2.03;32.29;91750.25;4992842;28;20465;-78
2023/01/21 03:40:06;;;;;;;2.90;1.40;;;;;;;-2.01;31.75;91742.34;4991092;28;20041;-78
2023/01/21 03:42:32;;;;;;;2.40;1.40;;;;;;;-2.00;32.45;91749.03;4984846;28;20121;-78
2023/01/21 03:44:58;;;;;;;2.30;1.40;;;;;;;-1.96;32.26;91732.16;4992328;28;20073;-78
2023/01/21 03:47:32;;;;;;;1.80;1.30;;;;;;;-1.94;31.34;91736.06;4992632;28;20122;-79
2023/01/21 03:50:09;;;;;;;2.95;1.58;;;;;;;-2.06;31.92;91730.19;4992087;28;20034;-78
2023/01/21 03:52:40;;;;;;;1.25;1.15;;;;;;;-1.81;31.54;91729.13;4990878;28;20039;-78
2023/01/21 03:55:07;;;;;;;1.95;1.30;;;;;;;-1.84;31.59;91727.03;4991350;28;20132;-78
2023/01/21 03:57:32;;;;;;;3.67;1.35;;;;;;;-1.90;31.76;91734.59;4991347;28;20160;-78
2023/01/21 03:59:58;;;;;;;3.08;1.50;;;;;;;-1.91;31.93;91709.97;4991033;28;20125;-78
2023/01/21 04:02:24;;;;;;;2.88;1.60;;;;;;;-1.98;32.09;91727.28;4990835;28;20043;-78
2023/01/21 04:04:51;;;;;;;2.85;1.60;;;;;;;-2.07;31.80;91726.09;4991830;28;20034;-78
2023/01/21 04:07:18;;;;;;;1.90;1.30;;;;;;;-2.10;31.91;91739.34;4984055;28;20057;-78
2023/01/21 04:09:44;;;;;;;6.38;2.95;;;;;;;-1.94;32.06;91712.97;4991717;28;20030;-77
2023/01/21 04:12:10;;;;;;;2.28;1.40;;;;;;;-1.90;31.11;91713.31;4992369;28;20042;-77
2023/01/21 04:14:36;;;;;;;2.42;1.40;;;;;;;-1.94;32.01;91712.97;4990838;28;20045;-76
2023/01/21 04:17:01;;;;;;;3.03;1.65;;;;;;;-1.84;32.10;91724.44;4991908;28;20038;-77
2023/01/21 04:19:27;;;;;;;2.78;1.58;;;;;;;-1.88;31.21;91711.28;4988831;28;20412;-78
2023/01/21 04:21:53;;;;;;;1.40;1.10;;;;;;;-1.93;31.51;91709.41;4972914;28;20409;-77
2023/01/21 04:24:18;;;;;;;1.83;1.30;;;;;;;-1.89;31.12;91730.28;4980646;28;20038;-77
2023/01/21 04:26:44;;;;;;;2.40;1.33;;;;;;;-1.96;31.18;91715.00;4991273;28;20485;-77
2023/01/21 04:29:09;;;;;;;2.58;1.52;;;;;;;-1.84;31.37;91716.75;4990274;28;20042;-77
2023/01/21 04:31:35;;;;;;;2.10;1.38;;;;;;;-1.86;31.67;91709.28;4991861;28;20037;-76
2023/01/21 04:34:01;;;;;;;2.55;1.60;;;;;;;-1.84;31.66;91720.09;4973653;28;20104;-77
2023/01/21 04:36:26;;;;;;;2.40;1.58;;;;;;;-1.68;30.81;91713.44;4990319;28;20022;-77
2023/01/21 04:38:52;;;;;;;2.42;1.58;;;;;;;-1.82;31.86;91724.97;4990910;28;20038;-77
2023/01/21 04:41:17;;;;;;;3.00;1.40;;;;;;;-1.90;31.53;91713.31;4991548;28;20103;-77
2023/01/21 04:43:43;;;;;;;2.67;1.40;;;;;;;-1.97;31.81;91722.94;4991308;28;20030;-77
2023/01/21 04:46:08;;;;;;;1.63;1.27;;;;;;;-1.93;31.80;91729.94;4990071;28;20045;-77
2023/01/21 04:48:34;;;;;;;3.30;1.50;;;;;;;-1.90;31.83;91723.56;4987178;28;20111;-76
2023/01/21 04:51:00;;;;;;;3.17;1.65;;;;;;;-1.81;31.12;91717.06;4989557;28;20141;-77
2023/01/21 04:53:25;;;;;;;2.90;1.10;;;;;;;-1.78;31.69;91715.81;4991896;28;20042;-77
2023/01/21 04:55:51;;;;;;;2.25;1.40;;;;;;;-1.70;30.90;91700.06;4986263;28;20045;-77
2023/01/21 04:58:17;;;;;;;2.08;1.30;;;;;;;-1.80;31.17;91707.56;4981920;28;20031;-78
2023/01/21 05:00:43;;;;;;;1.88;1.40;;;;;;;-1.93;31.77;91709.41;4981418;28;20038;-78
2023/01/21 05:03:08;;;;;;;2.13;1.30;;;;;;;-1.91;31.62;91707.41;4973926;28;20076;-77
2023/01/21 05:05:34;;;;;;;4.30;1.70;;;;;;;-1.96;31.95;91715.00;4989865;28;20378;-77
2023/01/21 05:07:59;;;;;;;2.03;1.38;;;;;;;-1.78;30.96;91715.81;4990978;28;20097;-77
2023/01/21 05:10:25;;;;;;;1.20;1.05;;;;;;;-1.72;31.11;91707.97;4989717;28;20085;-76
2023/01/21 05:12:51;;;;;;;2.80;1.50;;;;;;;-1.55;30.59;91709.81;4991233;28;20031;-77
2023/01/21 05:15:16;;;;;;;1.70;1.15;;;;;;;-1.74;30.80;91711.78;4991308;28;20503;-77
2023/01/21 05:17:42;;;;;;;2.78;1.40;;;;;;;-1.78;31.21;91708.91;4989573;28;20057;-78
2023/01/21 05:20:08;;;;;;;2.45;1.48;;;;;;;-1.94;31.63;91712.97;4990460;28;20074;-77
2023/01/21 05:22:34;;;;;;;1.95;1.30;;;;;;;-1.74;31.48;91702.28;4989760;28;20484;-77
2023/01/21 05:24:59;;;;;;;1.58;1.10;;;;;;;-1.55;31.70;91697.75;4990304;28;20039;-77
2023/01/21 05:27:26;;;;;;;2.13;1.35;;;;;;;-1.76;31.30;91713.81;4989416;28;20382;-78
2023/01/21 05:29:51;;;;;;;2.53;1.60;;;;;;;-1.70;30.77;91711.09;4986818;28;20038;-78
2023/01/21 05:32:18;;;;;;;4.18;1.60;;;;;;;-1.71;31.51;91701.84;4989870;28;20077;-78
2023/01/21 05:34:43;;;;;;;0.90;0.88;;;;;;;-1.75;32.04;91716.16;4990983;28;20039;-78
2023/01/21 05:37:10;;;;;;;2.35;1.48;;;;;;;-1.60;31.54;91718.22;4989409;28;20455;-78
2023/01/21 05:39:36;;;;;;;2.63;1.50;;;;;;;-1.74;31.73;91711.78;4991113;28;20030;-78
2023/01/21 05:42:02;;;;;;;2.30;1.33;;;;;;;-1.72;31.72;91709.78;4990255;28;20049;-78
2023/01/21 05:44:27;;;;;;;1.52;1.10;;;;;;;-1.77;32.24;91707.91;4989809;28;20524;-78
2023/01/21 05:46:53;;;;;;;1.67;1.20;;;;;;;-1.55;31.22;91705.47;4989717;28;20086;-78
2023/01/21 05:49:18;;;;;;;2.65;1.60;;;;;;;-1.60;31.68;91720.78;4989725;28;20487;-78
2023/01/21 05:51:44;;;;;;;3.55;1.50;;;;;;;-1.63;31.47;91713.53;4991836;28;20050;-78
2023/01/21 05:54:10;;;;;;;1.98;1.40;;;;;;;-1.62;31.08;91699.69;4995027;28;20100;-77
2023/01/21 05:56:36;;;;;;;1.65;1.33;;;;;;;-1.68;31.03;91726.28;4993485;28;20046;-78
2023/01/21 05:59:01;;;;;;;2.63;1.45;;;;;;;-1.65;31.36;91741.19;4976925;28;20042;-78
2023/01/21 06:01:27;;;;;;;2.13;1.42;;;;;;;-1.65;31.83;91719.91;4986115;28;20064;-78
2023/01/21 06:03:52;;;;;;;1.05;0.95;;;;;;;-1.65;31.50;91719.91;4995159;28;20030;-78
2023/01/21 06:06:18;;;;;;;3.65;1.80;;;;;;;-1.62;31.23;91725.38;4995015;28;20184;-78
2023/01/21 06:08:43;;;;;;;2.13;1.27;;;;;;;-1.55;30.70;91733.69;4994899;28;20039;-78
2023/01/21 06:11:09;;;;;;;1.40;1.30;;;;;;;-1.57;31.31;91734.94;4994004;28;20077;-78
2023/01/21 06:13:35;;;;;;;1.98;1.33;;;;;;;-1.47;30.77;91723.03;4994668;28;20026;-78
2023/01/21 06:16:00;;;;;;;2.42;1.40;;;;;;;-1.58;31.40;91741.06;4994595;28;20042;-78
2023/01/21 06:18:26;;;;;;;2.10;1.38;;;;;;;-1.59;31.15;91740.28;4993858;28;20034;-78
2023/01/21 06:20:51;;;;;;;2.42;1.50;;;;;;;-1.50;31.75;91738.13;4993805;28;20037;-79
2023/01/21 06:23:17;;;;;;;2.42;1.65;;;;;;;-1.52;30.93;91714.47;4994532;28;20644;-78
2023/01/21 06:25:43;;;;;;;2.30;1.40;;;;;;;-1.66;31.69;91744.78;4993479;28;20037;-78
2023/01/21 06:28:12;;;;;;;2.38;1.48;;;;;;;-1.63;31.38;91728.16;4992923;28;20097;-78
2023/01/21 06:30:38;;;;;;;4.20;1.92;;;;;;;-1.64;30.92;91739.41;4972745;28;20033;-78
2023/01/21 06:33:03;;;;;;;2.28;1.40;;;;;;;-1.70;31.26;91734.19;4993154;28;20397;-78
2023/01/21 06:35:29;;;;;;;2.65;1.70;;;;;;;-1.66;31.69;91744.78;4991263;28;20509;-78
2023/01/21 06:37:55;;;;;;;2.25;1.55;;;;;;;-1.59;31.31;91749.78;4991007;28;20026;-78
2023/01/21 06:40:21;;;;;;;1.52;1.20;;;;;;;-1.47;31.20;91748.69;4993593;28;20110;-78
2023/01/21 06:42:47;;;;;;;2.78;1.60;;;;;;;-1.51;30.94;91752.75;4991249;28;20096;-78
2023/01/21 06:45:14;;;;;;;1.70;1.30;;;;;;;-1.54;31.64;91748.06;4993648;28;20042;-79
2023/01/21 06:47:43;;;;;;;2.22;1.40;;;;;;;-1.42;30.11;91755.72;4993785;28;20452;-78
2023/01/21 06:50:11;;;;;;;2.10;1.42;;;;;;;-1.49;31.27;91753.31;4986670;28;20035;-78
2023/01/21 06:52:36;;;;;;;1.67;1.30;;;;;;;-1.56;31.01;91755.22;4988348;28;20038;-78
2023/01/21 06:55:03;;;;;;;2.10;1.33;;;;;;;-1.37;30.80;91757.63;4993763;28;20034;-78
2023/01/21 06:57:29;;;;;;;1.85;1.23;;;;;;;-1.45;30.68;91775.94;4991991;28;20042;-78
2023/01/21 06:59:55;;;;;;;3.38;1.50;;;;;;;-1.53;30.80;91759.91;4990601;28;20485;-77
2023/01/21 07:02:20;;;;;;;2.15;1.35;;;;;;;-1.42;30.43;91760.06;4976873;28;20074;-78
2023/01/21 07:04:48;;;;;;;2.58;1.50;;;;;;;-1.36;30.31;91761.72;4988662;28;20674;-78
2023/01/21 07:07:14;;;;;;;2.28;1.30;;;;;;;-1.25;29.59;91768.59;4993506;28;20038;-78
2023/01/21 07:09:39;;;;;;;1.90;1.25;;;;;;;-1.28;30.10;91771.63;4992246;28;20034;-78
2023/01/21 07:12:05;;;;;;;2.08;1.33;;;;;;;-1.31;30.36;91766.94;4988012;28;20054;-79
2023/01/21 07:14:31;;;;;;;3.45;1.55;;;;;;;-1.38;30.32;91766.31;4998558;28;20423;-78
2023/01/21 07:16:56;;;;;;;2.25;1.30;;;;;;;-1.38;30.31;91776.59;5012831;28;20484;-78
2023/01/21 07:19:22;;;;;;;3.22;1.52;;;;;;;-1.33;29.85;91768.97;4994055;28;20031;-78
2023/01/21 07:21:48;;;;;;;2.15;1.50;;;;;;;-1.20;29.96;91762.75;4990454;28;20058;-78
2023/01/21 07:24:13;;;;;;;2.17;1.17;;;;;;;-1.15;29.80;91757.69;4981838;28;20439;-79
2023/01/21 07:26:40;;;;;;;3.17;1.70;;;;;;;-0.91;29.77;91786.59;4982014;28;20156;-80
2023/01/21 07:29:07;;;;;;;2.13;1.50;;;;;;;-0.91;30.16;91771.97;4997317;28;20069;-79
2023/01/21 07:31:33;;;;;;;2.30;1.30;;;;;;;-0.61;30.15;91785.50;4997477;28;20062;-79
2023/01/21 07:33:58;;;;;;;3.58;1.50;;;;;;;0.02;28.15;91781.72;4988509;28;20532;-79
2023/01/21 07:36:25;;;;;;;3.35;1.75;;;;;;;0.74;27.95;91787.69;4993156;28;20523;-77
2023/01/21 07:38:51;;;;;;;8.27;1.30;;;;;;;1.48;26.60;91793.97;4995925;28;20043;-78
2023/01/21 07:41:17;;;;;;;1.75;1.27;;;;;;;2.22;25.89;91788.72;4994924;28;20049;-79
2023/01/21 07:43:42;;;;;;;3.35;1.58;;;;;;;2.87;25.29;91784.03;4993371;28;20050;-78
2023/01/21 07:46:08;;;;;;;2.95;1.52;;;;;;;3.59;25.02;91804.00;4994036;28;20150;-79
2023/01/21 07:48:34;;;;;;;2.67;1.60;;;;;;;4.64;24.14;91798.09;4992793;28;20050;-77
2023/01/21 07:50:59;;;;;;;3.13;1.80;;;;;;;4.68;23.43;91798.31;4994850;28;20050;-79
2023/01/21 07:53:25;;;;;;;2.40;1.52;;;;;;;6.35;22.51;91812.97;4994625;28;20053;-82
2023/01/21 07:55:51;;;;;;;3.25;1.65;;;;;;;7.11;19.98;91779.25;4992227;28;20527;-77
2023/01/21 07:58:17;;;;;;;3.83;1.58;;;;;;;7.29;20.86;91801.94;4994570;28;20121;-79
2023/01/21 08:00:42;;;;;;;2.97;1.40;;;;;;;7.80;19.82;91812.66;4979319;28;20421;-78
2023/01/21 08:03:08;;;;;;;2.72;1.40;;;;;;;7.63;19.37;91794.91;4991579;28;20034;-78
2023/01/21 08:05:34;;;;;;;18.23;7.80;;;;;;;6.39;21.06;91806.13;4993542;28;20550;-76
2023/01/21 08:07:59;;;;;;;4.22;2.10;;;;;;;6.86;20.15;91801.19;4976555;28;20065;-78
2023/01/21 08:10:25;;;;;;;2.97;1.67;;;;;;;6.87;20.45;91808.72;4993030;28;20054;-77
2023/01/21 08:12:51;;;;;;;2.78;1.70;;;;;;;7.37;19.94;91810.16;4991813;28;20034;-77
2023/01/21 08:15:17;;;;;;;3.30;1.60;;;;;;;8.44;19.12;91795.41;4992987;28;20049;-77
2023/01/21 08:17:43;;;;;;;2.70;1.63;;;;;;;9.56;18.69;91836.75;4994470;28;20081;-78
2023/01/21 08:20:10;;;;;;;3.25;1.88;;;;;;;10.07;17.66;91805.31;4994687;28;20038;-78
2023/01/21 08:22:37;;;;;;;2.47;1.45;;;;;;;10.43;17.69;91812.28;4995476;28;20030;-78
2023/01/21 08:25:04;;;;;;;4.47;1.80;;;;;;;10.98;17.15;91828.34;5000137;28;20034;-79
2023/01/21 08:27:31;;;;;;;2.85;1.70;;;;;;;10.96;16.21;91814.78;5003768;28;20034;-78
2023/01/21 08:29:56;;;;;;;3.55;1.63;;;;;;;10.03;17.67;91812.97;5004342;28;20524;-79
2023/01/21 08:32:22;;;;;;;2.50;1.40;;;;;;;9.63;17.29;91822.50;4987581;28;20151;-78
2023/01/21 08:34:49;;;;;;;3.25;1.75;;;;;;;9.50;17.56;91824.09;4992986;28;20050;-78
2023/01/21 08:37:14;;;;;;;3.70;1.83;;;;;;;9.07;17.77;91840.91;4988979;28;20042;-78
2023/01/21 08:39:40;;;;;;;2.38;1.42;;;;;;;9.27;18.45;91847.56;4993898;28;20031;-79
2023/01/21 08:42:05;;;;;;;3.53;1.60;;;;;;;9.04;18.18;91843.34;4985226;28;20042;-78
2023/01/21 08:44:31;;;;;;;3.22;1.77;;;;;;;9.26;18.81;91845.25;4993865;28;20085;-78
2023/01/21 08:46:56;;;;;;;2.55;1.45;;;;;;;8.93;17.95;91834.94;4995393;28;20022;-78
2023/01/21 08:49:22;;;;;;;3.03;1.63;;;;;;;8.49;18.12;91850.09;4993621;28;20049;-78
2023/01/21 08:51:48;;;;;;;2.33;1.45;;;;;;;8.68;17.94;91846.63;4994561;28;20054;-78
2023/01/21 08:54:15;;;;;;;3.00;1.60;;;;;;;9.50;18.72;91855.44;4993929;28;20042;-78
2023/01/21 08:56:40;;;;;;;3.45;1.80;;;;;;;10.10;18.10;91872.69;4996737;28;20042;-78
2023/01/21 08:59:06;;;;;;;2.70;1.58;;;;;;;9.88;18.08;91860.38;4995130;28;20510;-78
2023/01/21 09:01:32;;;;;;;3.15;1.52;;;;;;;9.44;18.04;91870.47;5000773;28;20515;-77
2023/01/21 09:03:59;;;;;;;3.10;1.65;;;;;;;8.68;18.40;91857.06;4996532;28;20476;-78
2023/01/21 09:06:28;;;;;;;2.85;1.33;;;;;;;8.54;19.01;91857.84;4995178;28;20045;-80
2023/01/21 09:08:55;;;;;;;2.53;1.45;;;;;;;8.61;19.20;91880.16;4993806;28;20093;-80
2023/01/21 09:11:21;;;;;;;2.80;1.50;;;;;;;8.02;19.19;91870.16;4997782;28;20042;-80
2023/01/21 09:13:47;;;;;;;6.75;2.10;;;;;;;8.21;19.20;91862.28;4996489;28;20034;-79
2023/01/21 09:16:14;;;;;;;2.78;1.70;;;;;;;7.83;19.36;91874.59;4997317;28;20534;-79
2023/01/21 09:18:41;;;;;;;3.55;1.80;;;;;;;7.09;18.94;91882.88;4997344;28;20093;-78
2023/01/21 09:21:07;;;;;;;3.35;1.70;;;;;;;7.05;20.27;91863.69;4997770;28;20412;-79
2023/01/21 09:23:34;;;;;;;3.47;1.65;;;;;;;6.88;20.41;91880.50;4997335;28;20044;-79
2023/01/21 09:29:54;;;;;;;3.15;1.63;;;;;;;7.22;20.00;91879.59;4997210;28;20165;-79
2023/01/21 09:36:15;;;;;;;3.13;1.60;;;;;;;6.92;19.96;91893.75;4989684;28;20065;-80
2023/01/21 09:38:42;;;;;;;2.88;1.38;;;;;;;6.86;20.57;91880.00;5003872;28;20042;-80
2023/01/21 09:41:47;;;;;;;3.25;1.77;;;;;;;6.68;20.60;91883.34;4994128;28;20026;-81
2023/01/21 09:44:16;;;;;;;3.78;1.70;;;;;;;6.78;20.80;91878.03;4995304;28;20070;-80
2023/01/21 09:46:53;;;;;;;2.67;1.60;;;;;;;6.96;20.25;91875.75;4995471;28;20038;-80
2023/01/21 09:52:34;;;;;;;3.97;1.60;;;;;;;7.05;20.59;91882.69;4996423;28;20043;-79
2023/01/21 09:55:01;;;;;;;2.42;1.42;;;;;;;7.17;20.39;91877.06;4995636;28;20042;-79
2023/01/21 10:01:48;;;;;;;4.38;1.70;;;;;;;7.39;20.87;91880.97;4976940;28;20050;-79
2023/01/21 10:04:16;;;;;;;;;;;;;;;7.81;18.93;91863.69;4992636;28;20039;-78
2023/01/21 10:14:04;;;;;;;3.58;1.42;;;;;;;7.37;19.45;91857.03;4984796;28;20061;-80
2023/01/21 10:16:55;;;;;;;5.70;1.60;;;;;;;7.85;20.15;91878.47;4995332;28;20121;-78
2023/01/21 10:19:51;;;;;;;2.28;1.45;;;;;;;7.54;19.15;91888.53;4992678;28;20027;-80
2023/01/21 10:22:26;;;;;;;6.53;1.70;;;;;;;6.81;20.37;91885.28;4994266;28;20054;-78
2023/01/21 10:25:03;;;;;;;1.98;1.23;;;;;;;7.17;20.78;91886.69;4992945;28;20157;-78
2023/01/21 10:27:34;;;;;;;3.85;1.70;;;;;;;7.36;20.46;91876.31;4994524;28;20069;-78
2023/01/21 10:30:21;;;;;;;3.47;1.70;;;;;;;7.67;20.25;91877.44;4996124;28;20086;-78
2023/01/21 10:32:51;;;;;;;4.55;1.75;;;;;;;7.14;19.64;91880.22;4995997;28;20038;-78
2023/01/21 10:35:18;;;;;;;2.90;1.52;;;;;;;7.29;20.03;91864.41;4997104;28;20493;-78
2023/01/21 10:38:01;;;;;;;3.58;1.70;;;;;;;6.20;20.21;91865.09;4996268;28;20133;-78
2023/01/21 10:40:54;;;;;;;4.90;1.50;;;;;;;6.61;21.14;91869.88;4999198;28;20096;-79
2023/01/21 10:43:37;;;;;;;2.50;1.30;;;;;;;6.58;20.25;91875.66;5000243;28;20382;-78
2023/01/21 10:46:05;;;;;;;;;;;;;;;6.28;20.92;91881.91;5001987;28;20241;-78
2023/01/21 10:55:03;;;;;;;3.20;1.70;;;;;;;6.34;20.91;91879.00;4999604;28;20518;-79
2023/01/21 10:57:35;;;;;;;4.25;1.73;;;;;;;6.54;21.28;91879.84;5000454;28;20038;-81
2023/01/21 11:00:03;;;;;;;3.65;1.90;;;;;;;6.54;20.91;91882.44;5000412;28;20057;-79
2023/01/21 11:02:31;;;;;;;3.10;1.73;;;;;;;6.81;20.57;91882.69;4999674;28;20034;-79
2023/01/21 11:05:01;;;;;;;5.30;2.20;;;;;;;6.74;20.78;91877.03;4981546;28;20477;-78
2023/01/21 11:07:33;;;;;;;5.35;2.03;;;;;;;7.00;21.02;91874.13;4998356;28;20045;-80
2023/01/21 11:10:01;;;;;;;3.47;1.70;;;;;;;7.06;21.40;91868.59;4997756;28;20035;-78
2023/01/21 11:12:29;;;;;;;2.13;1.42;;;;;;;6.53;20.63;91860.88;5014797;28;20034;-79
2023/01/21 11:15:01;;;;;;;4.00;1.90;;;;;;;6.71;21.39;91877.59;4998015;28;20045;-78
2023/01/21 11:17:33;;;;;;;3.10;1.60;;;;;;;6.59;20.89;91879.78;4998178;28;20093;-79
2023/01/21 11:20:00;;;;;;;3.80;1.42;;;;;;;6.80;21.23;91855.13;4997763;28;20027;-79
2023/01/21 11:22:29;;;;;;;1.45;1.10;;;;;;;6.81;20.19;91863.69;4981752;28;20065;-79
2023/01/21 11:24:55;;;;;;;2.53;1.50;;;;;;;7.04;21.07;91846.50;4998743;28;20267;-80
2023/01/21 11:27:31;;;;;;;2.35;1.58;;;;;;;7.38;20.45;91853.38;4994817;28;20034;-80
2023/01/21 11:29:57;;;;;;;4.25;1.60;;;;;;;7.09;20.06;91852.44;5000784;28;20050;-78
2023/01/21 11:32:27;;;;;;;3.60;1.80;;;;;;;7.46;20.96;91831.91;4997250;28;20164;-78
2023/01/21 11:35:06;;;;;;;4.75;1.70;;;;;;;7.22;19.63;91845.75;4992830;28;20042;-78
2023/01/21 11:37:33;;;;;;;3.88;2.15;;;;;;;7.00;19.90;91828.09;4996455;28;21612;-79
2023/01/21 11:40:10;;;;;;;4.40;1.92;;;;;;;6.98;21.61;91845.81;4996483;28;20035;-79
2023/01/21 11:42:53;;;;;;;3.45;1.80;;;;;;;6.78;20.42;91833.03;4999014;28;20038;-79
2023/01/21 11:45:30;;;;;;;3.92;1.40;;;;;;;6.90;20.30;91835.25;4997129;28;20039;-78
2023/01/21 11:47:56;;;;;;;3.13;1.60;;;;;;;7.30;20.97;91833.94;4983671;28;20038;-78
2023/01/21 11:50:33;;;;;;;4.40;1.77;;;;;;;7.26;21.10;91846.75;4992795;28;20051;-77
2023/01/21 11:53:19;;;;;;;2.90;1.48;;;;;;;6.99;20.39;91830.97;4994816;28;20418;-78
2023/01/21 11:55:53;;;;;;;2.70;1.50;;;;;;;7.39;20.58;91823.69;4998174;28;20050;-78
2023/01/21 11:58:32;;;;;;;2.88;1.52;;;;;;;7.30;19.99;91806.06;4996794;28;20034;-77
2023/01/21 12:01:01;;;;;;;3.08;1.60;;;;;;;6.95;20.65;91814.34;4996249;28;20115;-77
2023/01/21 12:03:35;;;;;;;3.15;1.60;;;;;;;7.20;20.68;91806.22;4995968;28;20030;-78
2023/01/21 12:06:01;;;;;;;3.35;1.83;;;;;;;7.34;19.93;91798.50;4994299;28;20026;-77
2023/01/21 12:08:34;;;;;;;3.17;1.77;;;;;;;7.36;20.76;91800.78;4993016;28;20484;-79
2023/01/21 12:11:01;;;;;;;2.22;1.38;;;;;;;7.60;19.95;91793.66;4989946;28;20136;-77
2023/01/21 12:13:31;;;;;;;3.33;1.48;;;;;;;7.28;21.04;91797.78;4993548;28;20469;-78
2023/01/21 12:16:03;;;;;;;4.72;1.75;;;;;;;7.09;21.33;91783.97;4990330;28;20472;-78